Time;durP1;ratioP1;P1;durP2;ratioP2;P2;SDS_P1;SDS_P2;PMS_P1;PMS_P2;Temp;Humidity;BMP_temperature;BMP_pressure;BME280_temperature;BME280_humidity;BME280_pressure;Samples;Min_cycle;Max_cycle;Signal;HPM_P1;HPM_P2
2021/07/28 00:01:00;;;;;;;4.72;3.80;;;;;;;;;;5030632;28;20393;-75
2021/07/28 00:03:26;;;;;;;4.88;3.92;;;;;;;;;;5028058;28;20069;-76
2021/07/28 00:05:53;;;;;;;5.32;4.05;;;;;;;;;;5029211;28;20132;-75
2021/07/28 00:08:21;;;;;;;4.88;3.92;;;;;;;;;;5029015;28;20077;-75
2021/07/28 00:10:47;;;;;;;5.78;4.00;;;;;;;;;;5014926;28;20061;-76
2021/07/28 00:13:14;;;;;;;5.20;4.10;;;;;;;;;;5027858;28;20060;-75
2021/07/28 00:15:41;;;;;;;4.93;4.10;;;;;;;;;;5027589;28;20061;-75
2021/07/28 00:18:25;;;;;;;5.40;4.15;;;;;;;;;;5028579;28;20064;-76
2021/07/28 00:23:37;;;;;;;4.55;3.97;;;;;;;;;;5025330;28;20100;-76
2021/07/28 00:26:03;;;;;;;5.32;4.35;;;;;;;;;;5027943;28;20418;-75
2021/07/28 00:28:29;;;;;;;4.25;3.63;;;;;;;;;;5027212;28;20138;-75
2021/07/28 00:30:56;;;;;;;6.38;4.38;;;;;;;;;;5027031;28;20057;-75
2021/07/28 00:33:22;;;;;;;5.10;4.00;;;;;;;;;;5023615;28;20065;-76
2021/07/28 00:35:48;;;;;;;5.57;4.28;;;;;;;;;;5023557;28;20057;-75
2021/07/28 00:38:15;;;;;;;5.50;4.53;;;;;;;;;;5026637;28;20068;-76
2021/07/28 00:40:45;;;;;;;5.45;4.40;;;;;;;;;;5027506;28;20068;-76
2021/07/28 00:43:13;;;;;;;5.30;4.07;;;;;;;;;;5023869;28;20118;-75
2021/07/28 00:45:40;;;;;;;5.75;4.40;;;;;;;;;;5026380;28;20069;-75
2021/07/28 00:48:08;;;;;;;5.80;4.28;;;;;;;;;;5028187;28;20030;-75
2021/07/28 00:50:37;;;;;;;8.88;4.80;;;;;;;;;;5023647;28;20038;-75
2021/07/28 00:53:04;;;;;;;5.38;4.38;;;;;;;;;;5053599;28;20512;-75
2021/07/28 00:55:33;;;;;;;4.80;4.28;;;;;;;;;;5023908;28;20037;-75
2021/07/28 00:58:03;;;;;;;4.88;4.13;;;;;;;;;;5022161;28;20057;-75
2021/07/28 01:00:30;;;;;;;5.97;4.55;;;;;;;;;;5017884;28;20069;-75
2021/07/28 01:02:56;;;;;;;6.03;4.50;;;;;;;;;;5024833;28;20045;-75
2021/07/28 01:05:23;;;;;;;6.35;4.70;;;;;;;;;;5027459;28;20512;-74
2021/07/28 01:07:49;;;;;;;5.28;4.20;;;;;;;;;;5020235;28;20509;-75
2021/07/28 01:10:16;;;;;;;6.43;4.30;;;;;;;;;;5021282;28;20815;-74
2021/07/28 01:12:45;;;;;;;6.10;4.40;;;;;;;;;;5023428;28;20057;-75
2021/07/28 01:15:21;;;;;;;4.97;4.07;;;;;;;;;;5026134;28;20065;-74
2021/07/28 01:17:48;;;;;;;6.35;4.38;;;;;;;;;;5024972;28;20057;-74
2021/07/28 01:20:16;;;;;;;6.20;4.45;;;;;;;;;;5022848;28;20057;-74
2021/07/28 01:22:42;;;;;;;5.53;4.60;;;;;;;;;;5023742;28;20057;-74
2021/07/28 01:25:09;;;;;;;7.10;4.55;;;;;;;;;;5028049;28;20056;-75
2021/07/28 01:27:35;;;;;;;6.30;4.55;;;;;;;;;;5021052;28;20068;-75
2021/07/28 01:30:02;;;;;;;6.13;5.03;;;;;;;;;;5026111;28;20494;-75
2021/07/28 01:32:28;;;;;;;5.75;4.70;;;;;;;;;;5055719;28;20053;-76
2021/07/28 01:34:55;;;;;;;5.65;4.78;;;;;;;;;;5020795;28;20565;-75
2021/07/28 01:37:23;;;;;;;5.88;4.95;;;;;;;;;;5020996;28;20054;-75
2021/07/28 01:39:49;;;;;;;5.10;4.53;;;;;;;;;;5053517;28;20057;-76
2021/07/28 01:42:15;;;;;;;5.15;4.60;;;;;;;;;;5025651;28;20111;-76
2021/07/28 01:44:43;;;;;;;5.57;4.40;;;;;;;;;;5023115;28;20084;-76
2021/07/28 01:47:11;;;;;;;6.22;5.25;;;;;;;;;;5024201;28;20037;-76
2021/07/28 01:49:38;;;;;;;5.72;4.82;;;;;;;;;;5017401;28;20049;-76
2021/07/28 01:52:04;;;;;;;5.72;4.63;;;;;;;;;;5019092;28;20502;-75
2021/07/28 01:54:31;;;;;;;6.00;4.88;;;;;;;;;;5025737;28;20076;-76
2021/07/28 01:56:57;;;;;;;6.07;4.30;;;;;;;;;;5027701;28;20045;-75
2021/07/28 01:59:25;;;;;;;5.85;4.53;;;;;;;;;;5054902;28;20072;-75
2021/07/28 02:01:52;;;;;;;6.40;4.72;;;;;;;;;;5021747;28;21245;-76
2021/07/28 02:04:18;;;;;;;6.85;5.25;;;;;;;;;;5016367;28;20061;-76
2021/07/28 02:06:44;;;;;;;6.55;4.63;;;;;;;;;;5020264;28;20060;-76
2021/07/28 02:09:11;;;;;;;5.43;4.72;;;;;;;;;;5026473;28;20057;-75
2021/07/28 02:11:37;;;;;;;6.28;4.78;;;;;;;;;;5026593;28;20064;-76
2021/07/28 02:14:04;;;;;;;8.68;5.28;;;;;;;;;;5030857;28;20056;-75
2021/07/28 02:16:30;;;;;;;6.00;5.15;;;;;;;;;;5019495;28;20066;-76
2021/07/28 02:18:57;;;;;;;5.75;4.70;;;;;;;;;;5024047;28;20438;-75
2021/07/28 02:21:23;;;;;;;5.53;4.78;;;;;;;;;;5028195;28;20161;-75
2021/07/28 02:23:50;;;;;;;6.13;4.57;;;;;;;;;;5024099;28;20570;-75
2021/07/28 02:26:17;;;;;;;6.75;4.78;;;;;;;;;;5025486;28;20068;-76
2021/07/28 02:28:43;;;;;;;7.03;4.85;;;;;;;;;;5053652;28;20061;-76
2021/07/28 02:31:09;;;;;;;5.75;4.80;;;;;;;;;;5020009;28;20065;-75
2021/07/28 02:33:36;;;;;;;6.88;5.47;;;;;;;;;;5026159;28;20072;-76
2021/07/28 02:36:02;;;;;;;6.25;5.18;;;;;;;;;;5000132;28;20115;-75
2021/07/28 02:38:29;;;;;;;5.75;4.70;;;;;;;;;;5024660;28;20064;-76
2021/07/28 02:40:55;;;;;;;5.97;5.00;;;;;;;;;;5018035;28;20065;-75
2021/07/28 02:43:22;;;;;;;5.03;4.45;;;;;;;;;;5024196;28;20525;-75
2021/07/28 02:45:48;;;;;;;6.57;5.20;;;;;;;;;;5023044;28;20069;-76
2021/07/28 02:48:14;;;;;;;6.45;4.63;;;;;;;;;;5023050;28;20057;-75
2021/07/28 02:50:41;;;;;;;6.18;4.88;;;;;;;;;;5022182;28;20058;-76
2021/07/28 02:53:07;;;;;;;7.03;4.95;;;;;;;;;;5025649;28;20103;-75
2021/07/28 02:55:33;;;;;;;5.53;4.80;;;;;;;;;;5030452;28;20064;-76
2021/07/28 02:58:00;;;;;;;5.60;4.93;;;;;;;;;;5030731;28;20071;-75
2021/07/28 03:00:26;;;;;;;5.50;4.88;;;;;;;;;;5018872;28;20058;-77
2021/07/28 03:02:53;;;;;;;6.00;4.45;;;;;;;;;;5027360;28;20061;-75
2021/07/28 03:05:21;;;;;;;5.60;4.47;;;;;;;;;;5058246;28;20130;-75
2021/07/28 03:07:47;;;;;;;5.82;4.88;;;;;;;;;;5021664;28;20513;-76
2021/07/28 03:10:13;;;;;;;4.95;3.97;;;;;;;;;;5030459;28;20029;-75
2021/07/28 03:12:40;;;;;;;5.85;4.60;;;;;;;;;;5061507;28;20064;-76
2021/07/28 03:15:06;;;;;;;5.78;4.65;;;;;;;;;;5025678;28;20068;-75
2021/07/28 03:17:33;;;;;;;5.85;5.00;;;;;;;;;;5057230;28;20085;-76
2021/07/28 03:19:59;;;;;;;6.03;4.88;;;;;;;;;;5026516;28;20581;-75
2021/07/28 03:22:26;;;;;;;5.95;4.78;;;;;;;;;;5030956;28;20061;-76
2021/07/28 03:24:53;;;;;;;5.88;4.97;;;;;;;;;;5025215;28;20277;-76
2021/07/28 03:27:19;;;;;;;6.13;4.78;;;;;;;;;;5028982;28;20061;-75
2021/07/28 03:29:46;;;;;;;5.78;4.43;;;;;;;;;;5029014;28;20045;-76
2021/07/28 03:32:12;;;;;;;5.82;4.57;;;;;;;;;;5025772;28;20058;-76
2021/07/28 03:34:38;;;;;;;7.10;5.15;;;;;;;;;;5024926;28;21189;-76
2021/07/28 03:37:05;;;;;;;5.90;4.43;;;;;;;;;;5028199;28;20057;-76
2021/07/28 03:39:31;;;;;;;5.80;4.90;;;;;;;;;;5027988;28;20061;-76
2021/07/28 03:41:58;;;;;;;6.68;5.10;;;;;;;;;;5025123;28;20158;-76
2021/07/28 03:44:24;;;;;;;6.93;5.07;;;;;;;;;;5020558;28;20061;-76
2021/07/28 03:46:51;;;;;;;6.85;4.80;;;;;;;;;;5044759;28;20057;-76
2021/07/28 03:49:17;;;;;;;7.20;5.32;;;;;;;;;;5027967;28;20065;-75
2021/07/28 03:51:43;;;;;;;6.63;4.80;;;;;;;;;;5052270;28;20052;-76
2021/07/28 03:54:10;;;;;;;6.10;5.18;;;;;;;;;;5030054;28;20509;-75
2021/07/28 03:56:36;;;;;;;6.90;5.15;;;;;;;;;;5028898;28;20093;-75
2021/07/28 03:59:03;;;;;;;6.65;5.10;;;;;;;;;;5020747;28;20049;-75
2021/07/28 04:01:29;;;;;;;6.90;5.03;;;;;;;;;;5028883;28;20053;-75
2021/07/28 04:03:56;;;;;;;6.22;4.95;;;;;;;;;;5030040;28;20072;-75
2021/07/28 04:06:22;;;;;;;7.03;5.30;;;;;;;;;;5027024;28;20065;-75
2021/07/28 04:08:48;;;;;;;7.15;5.82;;;;;;;;;;5022574;28;20071;-74
2021/07/28 04:11:15;;;;;;;7.70;5.40;;;;;;;;;;5029971;28;20057;-75
2021/07/28 04:13:42;;;;;;;7.20;5.43;;;;;;;;;;5060125;28;20057;-75
2021/07/28 04:16:11;;;;;;;5.57;4.88;;;;;;;;;;5027724;28;20029;-75
2021/07/28 04:18:37;;;;;;;7.13;5.32;;;;;;;;;;5026933;28;20076;-75
2021/07/28 04:21:04;;;;;;;7.00;5.43;;;;;;;;;;5052803;28;20521;-75
2021/07/28 04:23:30;;;;;;;6.30;5.07;;;;;;;;;;5026224;28;20505;-75
2021/07/28 04:25:58;;;;;;;6.57;5.15;;;;;;;;;;5029496;28;20057;-74
2021/07/28 04:28:24;;;;;;;6.25;5.20;;;;;;;;;;5025581;28;20060;-75
2021/07/28 04:30:51;;;;;;;5.75;4.43;;;;;;;;;;5028900;28;20072;-74
2021/07/28 04:33:17;;;;;;;6.70;5.53;;;;;;;;;;5029513;28;20050;-75
2021/07/28 04:35:45;;;;;;;7.88;5.50;;;;;;;;;;5028696;28;20057;-75
2021/07/28 04:38:11;;;;;;;6.78;5.35;;;;;;;;;;5028819;28;20060;-74
2021/07/28 04:40:37;;;;;;;5.53;4.93;;;;;;;;;;5024956;28;20115;-75
2021/07/28 04:43:04;;;;;;;4.38;3.58;;;;;;;;;;5044057;28;20057;-75
2021/07/28 04:45:30;;;;;;;5.20;3.58;;;;;;;;;;5027807;28;20061;-75
2021/07/28 04:47:56;;;;;;;6.55;5.63;;;;;;;;;;5028714;28;20520;-75
2021/07/28 04:50:23;;;;;;;7.13;4.90;;;;;;;;;;5059829;28;20060;-74
2021/07/28 04:52:49;;;;;;;6.95;5.47;;;;;;;;;;5021110;28;20130;-75
2021/07/28 04:55:16;;;;;;;6.72;5.00;;;;;;;;;;5028040;28;20473;-75
2021/07/28 04:57:42;;;;;;;6.70;5.78;;;;;;;;;;5028911;28;20090;-74
2021/07/28 05:00:09;;;;;;;6.65;5.03;;;;;;;;;;5024757;28;20057;-75
2021/07/28 05:02:35;;;;;;;6.90;5.85;;;;;;;;;;5026121;28;20068;-76
2021/07/28 05:05:03;;;;;;;6.20;5.30;;;;;;;;;;5023331;28;20071;-75
2021/07/28 05:07:30;;;;;;;6.93;5.50;;;;;;;;;;5017599;28;20057;-76
2021/07/28 05:09:56;;;;;;;9.68;5.70;;;;;;;;;;5051450;28;20135;-75
2021/07/28 05:12:23;;;;;;;6.45;5.47;;;;;;;;;;5029907;28;20065;-75
2021/07/28 05:14:49;;;;;;;8.73;6.00;;;;;;;;;;5026168;28;20779;-75
2021/07/28 05:17:18;;;;;;;6.95;5.50;;;;;;;;;;5027990;28;20037;-75
2021/07/28 05:19:44;;;;;;;6.65;5.00;;;;;;;;;;5027610;28;20084;-75
2021/07/28 05:22:11;;;;;;;7.00;5.38;;;;;;;;;;5023452;28;20061;-75
2021/07/28 05:24:37;;;;;;;6.10;5.25;;;;;;;;;;5020699;28;20084;-75
2021/07/28 05:27:04;;;;;;;5.93;5.32;;;;;;;;;;5025526;28;20061;-75
2021/07/28 05:29:30;;;;;;;6.93;5.68;;;;;;;;;;5024436;28;20069;-76
2021/07/28 05:31:56;;;;;;;7.38;5.68;;;;;;;;;;5028545;28;20068;-75
2021/07/28 05:34:23;;;;;;;6.80;5.32;;;;;;;;;;5028511;28;20057;-75
2021/07/28 05:36:49;;;;;;;5.90;5.30;;;;;;;;;;5026787;28;20107;-75
2021/07/28 05:39:15;;;;;;;6.68;5.70;;;;;;;;;;5026960;28;20434;-75
2021/07/28 05:41:42;;;;;;;6.65;5.75;;;;;;;;;;5026276;28;20069;-75
2021/07/28 05:44:08;;;;;;;8.85;5.30;;;;;;;;;;5024928;28;20576;-75
2021/07/28 05:46:35;;;;;;;7.72;4.85;;;;;;;;;;5027155;28;20476;-75
2021/07/28 05:49:02;;;;;;;6.15;4.90;;;;;;;;;;5027928;28;20057;-75
2021/07/28 05:51:28;;;;;;;7.47;5.20;;;;;;;;;;5019700;28;20060;-76
2021/07/28 05:53:55;;;;;;;6.93;5.85;;;;;;;;;;5028289;28;20053;-75
2021/07/28 05:56:21;;;;;;;6.35;5.53;;;;;;;;;;5028317;28;20079;-75
2021/07/28 05:58:48;;;;;;;6.13;5.15;;;;;;;;;;5027718;28;20069;-75
2021/07/28 06:01:14;;;;;;;4.05;3.40;;;;;;;;;;5027192;28;20056;-76
2021/07/28 06:03:40;;;;;;;5.75;4.47;;;;;;;;;;5025251;28;20067;-76
2021/07/28 06:06:07;;;;;;;6.20;5.03;;;;;;;;;;5026151;28;20053;-75
2021/07/28 06:08:33;;;;;;;7.35;5.32;;;;;;;;;;5019948;28;20107;-75
2021/07/28 06:11:00;;;;;;;6.82;5.20;;;;;;;;;;5026829;28;20057;-75
2021/07/28 06:13:26;;;;;;;6.47;4.88;;;;;;;;;;5021753;28;20068;-74
2021/07/28 06:15:52;;;;;;;6.68;4.80;;;;;;;;;;5017408;28;20073;-75
2021/07/28 06:18:19;;;;;;;6.20;5.35;;;;;;;;;;5026781;28;20041;-75
2021/07/28 06:20:45;;;;;;;6.35;5.22;;;;;;;;;;5021283;28;20064;-75
2021/07/28 06:23:12;;;;;;;6.47;4.93;;;;;;;;;;5026158;28;20064;-75
2021/07/28 06:25:38;;;;;;;6.20;4.82;;;;;;;;;;5025058;28;20069;-74
2021/07/28 06:28:04;;;;;;;5.55;4.55;;;;;;;;;;5027659;28;20041;-75
2021/07/28 06:30:31;;;;;;;6.95;5.03;;;;;;;;;;5026017;28;20489;-75
2021/07/28 06:32:58;;;;;;;5.97;5.10;;;;;;;;;;5027083;28;20119;-74
2021/07/28 06:35:24;;;;;;;7.07;5.53;;;;;;;;;;5027707;28;20062;-75
2021/07/28 06:37:50;;;;;;;5.63;4.97;;;;;;;;;;5026359;28;20091;-75
2021/07/28 06:40:17;;;;;;;6.22;4.82;;;;;;;;;;5013366;28;20069;-75
2021/07/28 06:42:43;;;;;;;5.65;4.38;;;;;;;;;;5020750;28;20049;-75
2021/07/28 06:45:10;;;;;;;6.28;4.70;;;;;;;;;;5026817;28;20080;-75
2021/07/28 06:47:36;;;;;;;5.63;4.20;;;;;;;;;;5026628;28;20067;-75
2021/07/28 06:50:03;;;;;;;6.07;4.40;;;;;;;;;;5025847;28;20061;-75
2021/07/28 06:52:29;;;;;;;6.50;5.35;;;;;;;;;;5022306;28;20060;-75
2021/07/28 06:54:56;;;;;;;5.82;4.85;;;;;;;;;;5027823;28;20493;-75
2021/07/28 06:57:22;;;;;;;6.10;4.60;;;;;;;;;;5027558;28;20493;-75
2021/07/28 06:59:49;;;;;;;7.55;4.63;;;;;;;;;;5026038;28;20080;-75
2021/07/28 07:02:15;;;;;;;6.22;5.05;;;;;;;;;;5027194;28;20070;-75
2021/07/28 07:04:41;;;;;;;5.68;4.82;;;;;;;;;;5024762;28;20068;-75
2021/07/28 07:07:08;;;;;;;5.70;4.57;;;;;;;;;;5022996;28;20135;-75
2021/07/28 07:09:34;;;;;;;6.53;4.57;;;;;;;;;;5026847;28;20072;-74
2021/07/28 07:12:00;;;;;;;6.70;5.25;;;;;;;;;;5022576;28;20100;-75
2021/07/28 07:14:29;;;;;;;6.82;4.20;;;;;;;;;;5025853;28;20066;-75
2021/07/28 07:16:56;;;;;;;5.03;4.47;;;;;;;;;;5026171;28;21626;-74
2021/07/28 07:19:24;;;;;;;8.57;4.85;;;;;;;;;;5019538;28;20062;-75
2021/07/28 07:21:50;;;;;;;6.25;4.25;;;;;;;;;;5022344;28;20529;-76
2021/07/28 07:24:16;;;;;;;5.35;4.38;;;;;;;;;;5024099;28;20068;-76
2021/07/28 07:26:43;;;;;;;5.63;4.43;;;;;;;;;;5016017;28;20058;-75
2021/07/28 07:29:09;;;;;;;5.68;4.50;;;;;;;;;;5023322;28;20533;-76
2021/07/28 07:31:36;;;;;;;5.20;4.30;;;;;;;;;;5018834;28;20056;-76
2021/07/28 07:34:02;;;;;;;6.80;5.40;;;;;;;;;;5026238;28;20053;-76
2021/07/28 07:36:28;;;;;;;6.85;4.93;;;;;;;;;;5022724;28;20065;-77
2021/07/28 07:38:55;;;;;;;5.05;4.10;;;;;;;;;;5028912;28;20069;-76
2021/07/28 07:41:21;;;;;;;4.82;3.92;;;;;;;;;;5060403;28;20057;-75
2021/07/28 07:43:47;;;;;;;5.63;4.40;;;;;;;;;;5026970;28;20060;-75
2021/07/28 07:46:14;;;;;;;4.72;4.22;;;;;;;;;;5025809;28;20551;-75
2021/07/28 07:48:40;;;;;;;5.05;4.03;;;;;;;;;;5025736;28;20049;-76
2021/07/28 07:51:07;;;;;;;5.60;4.13;;;;;;;;;;5028996;28;20111;-76
2021/07/28 07:53:33;;;;;;;6.28;4.82;;;;;;;;;;5028793;28;20053;-76
2021/07/28 07:56:02;;;;;;;6.05;4.43;;;;;;;;;;5029019;28;20395;-76
2021/07/28 07:58:29;;;;;;;6.93;4.10;;;;;;;;;;5023244;28;20058;-76
2021/07/28 08:00:55;;;;;;;6.85;4.53;;;;;;;;;;5027369;28;20123;-75
2021/07/28 08:03:22;;;;;;;6.22;4.63;;;;;;;;;;5029489;28;20068;-75
2021/07/28 08:05:48;;;;;;;4.97;4.28;;;;;;;;;;5024794;28;20159;-75
2021/07/28 08:08:14;;;;;;;4.95;4.45;;;;;;;;;;5022301;28;20142;-75
2021/07/28 08:10:41;;;;;;;5.80;4.38;;;;;;;;;;5023726;28;20065;-75
2021/07/28 08:13:08;;;;;;;6.15;4.50;;;;;;;;;;5029501;28;20511;-74
2021/07/28 08:15:35;;;;;;;6.82;5.07;;;;;;;;;;5026011;28;20061;-75
2021/07/28 08:18:01;;;;;;;6.10;4.30;;;;;;;;;;5028217;28;20065;-74
2021/07/28 08:20:27;;;;;;;6.18;4.88;;;;;;;;;;5030030;28;20054;-75
2021/07/28 08:22:54;;;;;;;6.18;4.70;;;;;;;;;;5026217;28;20110;-75
2021/07/28 08:25:20;;;;;;;7.38;5.10;;;;;;;;;;5025889;28;20069;-75
2021/07/28 08:27:47;;;;;;;6.18;4.82;;;;;;;;;;5026542;28;20083;-74
2021/07/28 08:30:13;;;;;;;6.00;5.07;;;;;;;;;;5028004;28;20069;-74
2021/07/28 08:32:40;;;;;;;5.90;4.78;;;;;;;;;;5026030;28;20057;-74
2021/07/28 08:35:07;;;;;;;7.75;4.75;;;;;;;;;;5027182;28;20061;-74
2021/07/28 08:37:33;;;;;;;6.35;5.03;;;;;;;;;;5026130;28;20065;-75
2021/07/28 08:40:00;;;;;;;6.38;4.57;;;;;;;;;;5024757;28;20512;-75
2021/07/28 08:42:29;;;;;;;7.43;4.70;;;;;;;;;;5024324;28;20088;-75
2021/07/28 08:44:55;;;;;;;6.00;4.57;;;;;;;;;;5022363;28;21207;-75
2021/07/28 08:47:22;;;;;;;6.35;4.82;;;;;;;;;;5016350;28;20065;-75
2021/07/28 08:49:51;;;;;;;7.05;5.47;;;;;;;;;;5026044;28;20068;-75
2021/07/28 08:52:18;;;;;;;6.55;4.95;;;;;;;;;;5029616;28;20115;-75
2021/07/28 08:54:44;;;;;;;6.60;4.90;;;;;;;;;;5021779;28;20057;-74
2021/07/28 08:57:11;;;;;;;5.82;4.70;;;;;;;;;;5024309;28;20087;-74
2021/07/28 08:59:38;;;;;;;7.60;4.75;;;;;;;;;;5024280;28;20045;-73
2021/07/28 09:02:04;;;;;;;6.68;4.82;;;;;;;;;;5019345;28;20064;-74
2021/07/28 09:04:31;;;;;;;5.90;4.57;;;;;;;;;;5028595;28;20072;-75
2021/07/28 09:06:58;;;;;;;6.68;4.78;;;;;;;;;;5022926;28;20064;-75
2021/07/28 09:09:24;;;;;;;6.80;5.05;;;;;;;;;;5025237;28;20056;-74
2021/07/28 09:12:01;;;;;;;5.93;4.88;;;;;;;;;;5027741;28;20118;-74
2021/07/28 09:14:36;;;;;;;6.07;5.07;;;;;;;;;;5026584;28;20130;-75
2021/07/28 09:17:14;;;;;;;6.57;5.13;;;;;;;;;;5025360;28;20490;-75
2021/07/28 09:19:46;;;;;;;6.80;4.50;;;;;;;;;;5019683;28;20097;-75
2021/07/28 09:22:13;;;;;;;6.28;5.38;;;;;;;;;;5023532;28;20054;-74
2021/07/28 09:24:42;;;;;;;5.53;4.60;;;;;;;;;;5013725;28;20457;-75
2021/07/28 09:27:08;;;;;;;6.72;4.85;;;;;;;;;;5025706;28;20088;-74
2021/07/28 09:29:39;;;;;;;5.65;5.05;;;;;;;;;;5027510;28;20060;-75
2021/07/28 09:32:07;;;;;;;6.97;5.18;;;;;;;;;;5028670;28;20029;-75
2021/07/28 09:34:35;;;;;;;4.97;4.43;;;;;;;;;;5026612;28;20037;-75
2021/07/28 09:37:07;;;;;;;6.30;4.93;;;;;;;;;;5023786;28;20558;-75
2021/07/28 09:39:33;;;;;;;7.13;5.10;;;;;;;;;;5025949;28;20061;-75
2021/07/28 09:42:01;;;;;;;4.78;3.78;;;;;;;;;;5026304;28;20127;-75
2021/07/28 09:44:28;;;;;;;7.57;5.28;;;;;;;;;;5027491;28;20076;-74
2021/07/28 09:47:04;;;;;;;4.70;4.07;;;;;;;;;;5021287;28;21246;-75
2021/07/28 09:49:31;;;;;;;6.85;5.03;;;;;;;;;;5026240;28;20041;-75
2021/07/28 09:51:57;;;;;;;6.07;4.63;;;;;;;;;;5028645;28;20068;-75
2021/07/28 09:54:31;;;;;;;5.65;4.53;;;;;;;;;;5025075;28;20057;-75
2021/07/28 09:56:58;;;;;;;6.60;4.95;;;;;;;;;;5024945;28;23172;-75
2021/07/28 09:59:25;;;;;;;5.55;4.38;;;;;;;;;;5026795;28;20119;-75
2021/07/28 10:01:52;;;;;;;6.00;4.70;;;;;;;;;;5019010;28;20096;-75
2021/07/28 10:04:19;;;;;;;5.15;4.65;;;;;;;;;;5027057;28;20057;-75
2021/07/28 10:06:53;;;;;;;6.13;4.35;;;;;;;;;;5012517;28;20099;-75
2021/07/28 10:09:27;;;;;;;6.78;4.95;;;;;;;;;;5025811;28;20033;-75
2021/07/28 10:11:57;;;;;;;5.00;4.40;;;;;;;;;;5026715;28;21250;-75
2021/07/28 10:14:23;;;;;;;4.80;3.97;;;;;;;;;;5027566;28;20437;-75
2021/07/28 10:16:52;;;;;;;6.18;4.82;;;;;;;;;;5022033;28;20072;-75
2021/07/28 10:19:18;;;;;;;5.70;4.70;;;;;;;;;;5021642;28;20065;-75
2021/07/28 10:21:47;;;;;;;5.38;4.50;;;;;;;;;;5025509;28;20057;-75
2021/07/28 10:24:14;;;;;;;5.25;4.20;;;;;;;;;;5027927;28;20029;-75
2021/07/28 10:26:42;;;;;;;5.80;4.05;;;;;;;;;;5022521;28;20053;-75
2021/07/28 10:29:09;;;;;;;5.20;4.03;;;;;;;;;;5027586;28;20587;-75
2021/07/28 10:31:46;;;;;;;6.95;4.90;;;;;;;;;;5025801;28;20065;-75
2021/07/28 10:34:23;;;;;;;4.80;3.97;;;;;;;;;;5053497;28;20438;-74
2021/07/28 10:36:52;;;;;;;5.75;4.40;;;;;;;;;;5022871;28;20115;-74
2021/07/28 10:39:51;;;;;;;6.78;4.45;;;;;;;;;;5022202;28;20062;-75
2021/07/28 10:42:18;;;;;;;6.20;4.93;;;;;;;;;;5011872;28;21442;-75
2021/07/28 10:44:57;;;;;;;5.90;4.50;;;;;;;;;;5022503;28;20570;-75
2021/07/28 10:47:42;;;;;;;9.30;4.63;;;;;;;;;;5024205;28;20112;-75
2021/07/28 10:50:08;;;;;;;4.93;4.32;;;;;;;;;;5022449;28;21181;-76
2021/07/28 10:52:36;;;;;;;6.45;3.95;;;;;;;;;;5023264;28;20508;-75
2021/07/28 10:55:03;;;;;;;6.82;4.53;;;;;;;;;;5016407;28;20062;-75
2021/07/28 10:57:36;;;;;;;6.68;4.72;;;;;;;;;;5024048;28;20505;-76
2021/07/28 11:00:07;;;;;;;5.63;4.40;;;;;;;;;;5020055;28;20555;-75
2021/07/28 11:02:46;;;;;;;6.03;4.80;;;;;;;;;;5025537;28;20118;-76
2021/07/28 11:05:22;;;;;;;5.63;4.45;;;;;;;;;;5018767;28;20505;-75
2021/07/28 11:08:06;;;;;;;5.20;4.35;;;;;;;;;;5016893;28;20097;-74
2021/07/28 11:10:50;;;;;;;7.38;5.00;;;;;;;;;;5024543;28;20030;-75
2021/07/28 11:13:17;;;;;;;6.65;4.75;;;;;;;;;;5029178;28;20524;-75
2021/07/28 11:16:04;;;;;;;6.43;5.00;;;;;;;;;;5027451;28;20088;-75
2021/07/28 11:18:33;;;;;;;6.03;5.18;;;;;;;;;;5024818;28;20095;-74
2021/07/28 11:21:21;;;;;;;5.20;4.32;;;;;;;;;;5024201;28;20084;-75
2021/07/28 11:23:55;;;;;;;6.65;4.45;;;;;;;;;;5026664;28;20066;-75
2021/07/28 11:26:24;;;;;;;5.75;4.78;;;;;;;;;;5022715;28;20053;-74
2021/07/28 11:28:53;;;;;;;5.63;4.40;;;;;;;;;;5021195;28;20061;-75
2021/07/28 11:31:24;;;;;;;7.22;5.47;;;;;;;;;;5027568;28;20041;-75
2021/07/28 11:33:50;;;;;;;7.50;4.80;;;;;;;;;;5027334;28;20060;-76
2021/07/28 11:36:20;;;;;;;5.35;4.68;;;;;;;;;;5030935;28;20128;-75
2021/07/28 11:38:47;;;;;;;6.15;4.80;;;;;;;;;;5016907;28;20112;-75
2021/07/28 11:41:21;;;;;;;6.13;5.05;;;;;;;;;;5030008;28;20052;-75
2021/07/28 11:43:47;;;;;;;6.45;4.95;;;;;;;;;;5023891;28;20057;-75
2021/07/28 11:46:18;;;;;;;5.97;5.07;;;;;;;;;;5027746;28;20127;-76
2021/07/28 11:48:55;;;;;;;7.15;5.55;;;;;;;;;;5028925;28;20061;-76
2021/07/28 11:51:28;;;;;;;6.57;5.00;;;;;;;;;;5030132;28;20057;-75
2021/07/28 11:54:06;;;;;;;6.72;4.60;;;;;;;;;;5029125;28;21264;-75
2021/07/28 11:56:33;;;;;;;5.30;4.38;;;;;;;;;;5028674;28;20162;-76
2021/07/28 11:58:59;;;;;;;6.43;4.43;;;;;;;;;;5022297;28;20064;-75
2021/07/28 12:01:25;;;;;;;6.38;5.25;;;;;;;;;;5040783;28;20065;-75
2021/07/28 12:03:53;;;;;;;5.35;4.60;;;;;;;;;;5027919;28;20559;-76
2021/07/28 12:06:34;;;;;;;4.97;4.28;;;;;;;;;;5030457;28;20155;-75
2021/07/28 12:09:16;;;;;;;6.60;5.00;;;;;;;;;;5026817;28;21551;-75
2021/07/28 12:11:46;;;;;;;5.68;4.40;;;;;;;;;;5027416;28;20049;-76
2021/07/28 12:14:23;;;;;;;5.75;4.65;;;;;;;;;;5025210;28;20115;-75
2021/07/28 12:16:49;;;;;;;7.43;4.57;;;;;;;;;;5022922;28;20120;-76
2021/07/28 12:19:22;;;;;;;6.03;4.60;;;;;;;;;;5023984;28;20111;-75
2021/07/28 12:21:57;;;;;;;5.85;4.75;;;;;;;;;;5028802;28;20092;-76
2021/07/28 12:24:34;;;;;;;7.15;5.15;;;;;;;;;;5024236;28;20030;-76
2021/07/28 12:27:19;;;;;;;5.53;4.10;;;;;;;;;;5027361;28;21552;-75
2021/07/28 12:29:57;;;;;;;6.18;4.88;;;;;;;;;;5060233;28;20566;-76
2021/07/28 12:32:36;;;;;;;6.82;4.40;;;;;;;;;;5026623;28;20057;-75
2021/07/28 12:35:07;;;;;;;7.45;4.55;;;;;;;;;;5056813;28;21534;-75
2021/07/28 12:37:33;;;;;;;5.43;4.20;;;;;;;;;;5028481;28;20430;-76
2021/07/28 12:40:00;;;;;;;6.53;4.35;;;;;;;;;;5023753;28;20072;-75
2021/07/28 12:42:26;;;;;;;5.75;4.53;;;;;;;;;;5029485;28;20480;-76
2021/07/28 12:44:53;;;;;;;6.63;4.53;;;;;;;;;;5018326;28;20140;-76
2021/07/28 12:47:19;;;;;;;5.68;4.57;;;;;;;;;;5028485;28;20860;-76
2021/07/28 12:49:46;;;;;;;6.57;4.28;;;;;;;;;;5016214;28;20528;-76
2021/07/28 12:52:12;;;;;;;6.00;4.53;;;;;;;;;;5027924;28;20103;-75
2021/07/28 12:54:39;;;;;;;5.55;4.20;;;;;;;;;;5023684;28;20046;-76
2021/07/28 12:57:05;;;;;;;5.88;4.40;;;;;;;;;;5027668;28;20111;-75
2021/07/28 12:59:31;;;;;;;6.03;4.22;;;;;;;;;;5023076;28;21236;-75
2021/07/28 13:02:01;;;;;;;5.32;4.13;;;;;;;;;;5029265;28;20115;-75
2021/07/28 13:04:28;;;;;;;7.00;4.03;;;;;;;;;;5027231;28;20061;-75
2021/07/28 13:07:01;;;;;;;4.85;3.67;;;;;;;;;;5022726;28;22293;-76
2021/07/28 13:09:27;;;;;;;5.47;4.00;;;;;;;;;;5028099;28;20057;-75
2021/07/28 13:11:54;;;;;;;4.90;3.97;;;;;;;;;;5023537;28;20096;-76
2021/07/28 13:14:20;;;;;;;4.95;3.78;;;;;;;;;;5027670;28;20460;-75
2021/07/28 13:16:46;;;;;;;4.50;3.65;;;;;;;;;;5026499;28;20069;-75
2021/07/28 13:19:13;;;;;;;4.25;3.63;;;;;;;;;;5058168;28;20077;-75
2021/07/28 13:21:39;;;;;;;5.07;3.85;;;;;;;;;;5017840;28;20049;-75
2021/07/28 13:24:05;;;;;;;5.30;3.63;;;;;;;;;;5021866;28;20072;-75
2021/07/28 13:26:32;;;;;;;4.75;3.53;;;;;;;;;;5026585;28;20092;-75
2021/07/28 13:29:00;;;;;;;4.50;3.40;;;;;;;;;;5056502;28;20073;-75
2021/07/28 13:31:27;;;;;;;4.60;3.55;;;;;;;;;;5026414;28;20073;-75
2021/07/28 13:33:53;;;;;;;5.25;3.90;;;;;;;;;;5028432;28;20072;-75
2021/07/28 13:36:21;;;;;;;4.05;3.55;;;;;;;;;;5026791;28;20531;-75
2021/07/28 13:38:47;;;;;;;6.03;4.13;;;;;;;;;;5027059;28;20072;-75
2021/07/28 13:41:14;;;;;;;3.83;3.38;;;;;;;;;;5027613;28;20469;-75
2021/07/28 13:43:40;;;;;;;5.90;3.80;;;;;;;;;;5018091;28;20049;-75
2021/07/28 13:46:06;;;;;;;6.72;4.10;;;;;;;;;;5023025;28;20065;-76
2021/07/28 13:48:33;;;;;;;5.95;4.40;;;;;;;;;;5020838;28;20121;-75
2021/07/28 13:51:02;;;;;;;6.07;4.25;;;;;;;;;;5023882;28;20494;-75
2021/07/28 13:53:29;;;;;;;6.13;4.15;;;;;;;;;;5027985;28;20070;-75
2021/07/28 13:55:55;;;;;;;7.00;4.38;;;;;;;;;;5025880;28;20087;-74
2021/07/28 13:58:22;;;;;;;5.05;4.15;;;;;;;;;;5027095;28;20045;-75
2021/07/28 14:00:48;;;;;;;6.60;3.80;;;;;;;;;;5027908;28;20087;-75
2021/07/28 14:03:15;;;;;;;6.22;3.80;;;;;;;;;;5026522;28;20065;-75
2021/07/28 14:05:42;;;;;;;5.13;3.40;;;;;;;;;;5024282;28;20061;-75
2021/07/28 14:08:08;;;;;;;4.85;3.72;;;;;;;;;;5027501;28;20418;-75
2021/07/28 14:10:35;;;;;;;5.57;3.70;;;;;;;;;;5021139;28;20061;-76
2021/07/28 14:13:01;;;;;;;5.50;3.72;;;;;;;;;;5027289;28;20551;-75
2021/07/28 14:15:28;;;;;;;5.32;3.70;;;;;;;;;;5027913;28;20520;-75
2021/07/28 14:17:54;;;;;;;4.53;3.45;;;;;;;;;;5026659;28;20453;-75
2021/07/28 14:20:21;;;;;;;5.15;3.92;;;;;;;;;;5025513;28;20069;-75
2021/07/28 14:22:47;;;;;;;4.97;3.70;;;;;;;;;;5025464;28;20057;-75
2021/07/28 14:25:15;;;;;;;4.72;3.40;;;;;;;;;;5027731;28;20068;-75
2021/07/28 14:27:42;;;;;;;5.57;3.38;;;;;;;;;;5024437;28;20069;-75
2021/07/28 14:30:08;;;;;;;5.70;3.78;;;;;;;;;;5023163;28;20034;-75
2021/07/28 14:32:35;;;;;;;5.95;3.80;;;;;;;;;;5025174;28;20052;-76
2021/07/28 14:35:01;;;;;;;6.22;4.03;;;;;;;;;;5021754;28;20540;-75
2021/07/28 14:37:27;;;;;;;4.63;3.92;;;;;;;;;;5025068;28;20049;-75
2021/07/28 14:39:54;;;;;;;4.40;3.22;;;;;;;;;;5025335;28;20061;-75
2021/07/28 14:42:20;;;;;;;5.22;3.28;;;;;;;;;;5026960;28;20037;-75
2021/07/28 14:44:47;;;;;;;4.80;3.65;;;;;;;;;;5026106;28;20072;-75
2021/07/28 14:47:15;;;;;;;5.72;3.67;;;;;;;;;;5026963;28;20521;-75
2021/07/28 14:49:41;;;;;;;4.80;3.80;;;;;;;;;;5030094;28;20057;-75